sensor_id;sensor_type;location;lat;lon;timestamp;pressure;altitude;pressure_sealevel;temperature;humidity
39301;BME280;25019;42.626;23.380;2023-03-14T00:00:37;94653.09;;;2.10;61.37
39301;BME280;25019;42.626;23.380;2023-03-14T00:03:03;94595.94;;;1.71;61.92
39301;BME280;25019;42.626;23.380;2023-03-14T00:05:29;94647.66;;;2.12;61.45
39301;BME280;25019;42.626;23.380;2023-03-14T00:07:54;94577.19;;;1.67;61.95
39301;BME280;25019;42.626;23.380;2023-03-14T00:10:20;94609.19;;;1.91;61.60
39301;BME280;25019;42.626;23.380;2023-03-14T00:12:46;94632.69;;;2.06;61.82
39301;BME280;25019;42.626;23.380;2023-03-14T00:15:12;94586.53;;;1.76;61.59
39301;BME280;25019;42.626;23.380;2023-03-14T00:17:38;94621.19;;;2.00;61.78
39301;BME280;25019;42.626;23.380;2023-03-14T00:20:05;94620.34;;;2.00;61.60
39301;BME280;25019;42.626;23.380;2023-03-14T00:22:35;94612.88;;;1.97;61.63
39301;BME280;25019;42.626;23.380;2023-03-14T00:25:01;94611.06;;;1.97;61.66
39301;BME280;25019;42.626;23.380;2023-03-14T00:27:27;94527.63;;;1.44;61.93
39301;BME280;25019;42.626;23.380;2023-03-14T00:29:53;94589.88;;;1.92;62.92
39301;BME280;25019;42.626;23.380;2023-03-14T00:32:19;94590.69;;;1.92;63.14
39301;BME280;25019;42.626;23.380;2023-03-14T00:34:46;94581.00;;;1.93;63.18
39301;BME280;25019;42.626;23.380;2023-03-14T00:37:13;94570.28;;;1.88;63.59
39301;BME280;25019;42.626;23.380;2023-03-14T00:39:39;94579.97;;;1.87;64.10
39301;BME280;25019;42.626;23.380;2023-03-14T00:42:04;94569.25;;;1.82;64.07
39301;BME280;25019;42.626;23.380;2023-03-14T00:44:30;94563.34;;;1.73;64.04
39301;BME280;25019;42.626;23.380;2023-03-14T00:46:57;94575.28;;;1.83;62.93
39301;BME280;25019;42.626;23.380;2023-03-14T00:49:24;94518.34;;;1.41;63.59
39301;BME280;25019;42.626;23.380;2023-03-14T00:51:50;94494.31;;;1.31;63.91
39301;BME280;25019;42.626;23.380;2023-03-14T00:54:17;94571.63;;;1.77;63.49
39301;BME280;25019;42.626;23.380;2023-03-14T00:56:44;94523.84;;;1.46;63.58
39301;BME280;25019;42.626;23.380;2023-03-14T00:59:09;94526.88;;;1.50;63.82
39301;BME280;25019;42.626;23.380;2023-03-14T01:01:35;94568.38;;;1.75;63.87
39301;BME280;25019;42.626;23.380;2023-03-14T01:04:01;94567.69;;;1.66;63.79
39301;BME280;25019;42.626;23.380;2023-03-14T01:06:29;94578.06;;;1.74;63.20
39301;BME280;25019;42.626;23.380;2023-03-14T01:08:56;94456.38;;;0.98;62.71
39301;BME280;25019;42.626;23.380;2023-03-14T01:11:28;94563.97;;;1.75;62.21
39301;BME280;25019;42.626;23.380;2023-03-14T01:13:56;94490.88;;;1.30;61.67
39301;BME280;25019;42.626;23.380;2023-03-14T01:16:24;94540.72;;;1.66;62.14
39301;BME280;25019;42.626;23.380;2023-03-14T01:18:50;94500.16;;;1.33;62.13
39301;BME280;25019;42.626;23.380;2023-03-14T01:21:27;94559.53;;;1.76;61.96
39301;BME280;25019;42.626;23.380;2023-03-14T01:23:55;94550.66;;;1.77;62.10
39301;BME280;25019;42.626;23.380;2023-03-14T01:26:23;94547.03;;;1.78;62.21
39301;BME280;25019;42.626;23.380;2023-03-14T01:28:51;94537.16;;;1.73;61.89
39301;BME280;25019;42.626;23.380;2023-03-14T01:31:17;94539.94;;;1.72;61.97
39301;BME280;25019;42.626;23.380;2023-03-14T01:33:44;94540.16;;;1.70;62.66
39301;BME280;25019;42.626;23.380;2023-03-14T01:36:10;94533.16;;;1.56;62.50
39301;BME280;25019;42.626;23.380;2023-03-14T01:38:38;94544.25;;;1.58;64.31
39301;BME280;25019;42.626;23.380;2023-03-14T01:41:06;94536.72;;;1.48;64.91
39301;BME280;25019;42.626;23.380;2023-03-14T01:43:33;94538.09;;;1.44;65.44
39301;BME280;25019;42.626;23.380;2023-03-14T01:48:38;94415.88;;;0.66;65.46
39301;BME280;25019;42.626;23.380;2023-03-14T01:51:13;94515.06;;;1.32;66.11
39301;BME280;25019;42.626;23.380;2023-03-14T01:53:41;94501.91;;;1.26;65.96
39301;BME280;25019;42.626;23.380;2023-03-14T01:56:09;94509.56;;;1.27;66.10
39301;BME280;25019;42.626;23.380;2023-03-14T01:58:37;94518.22;;;1.28;66.17
39301;BME280;25019;42.626;23.380;2023-03-14T02:01:04;94518.22;;;1.28;65.94
39301;BME280;25019;42.626;23.380;2023-03-14T02:03:37;94474.91;;;0.97;66.19
39301;BME280;25019;42.626;23.380;2023-03-14T02:06:06;94523.59;;;1.19;66.94
39301;BME280;25019;42.626;23.380;2023-03-14T02:08:35;94466.47;;;0.80;67.13
39301;BME280;25019;42.626;23.380;2023-03-14T02:11:05;94527.59;;;1.15;67.23
39301;BME280;25019;42.626;23.380;2023-03-14T02:13:52;94527.38;;;1.17;67.12
39301;BME280;25019;42.626;23.380;2023-03-14T02:16:35;94477.56;;;0.82;68.03
39301;BME280;25019;42.626;23.380;2023-03-14T02:19:28;94520.47;;;1.09;67.85
39301;BME280;25019;42.626;23.380;2023-03-14T02:22:12;94516.06;;;1.10;67.83
39301;BME280;25019;42.626;23.380;2023-03-14T02:24:54;94517.44;;;1.06;68.76
39301;BME280;25019;42.626;23.380;2023-03-14T02:27:23;94508.06;;;0.96;68.77
39301;BME280;25019;42.626;23.380;2023-03-14T02:29:53;94520.16;;;0.97;69.47
39301;BME280;25019;42.626;23.380;2023-03-14T02:32:21;94511.63;;;0.88;69.36
39301;BME280;25019;42.626;23.380;2023-03-14T02:34:50;94511.25;;;0.92;69.63
39301;BME280;25019;42.626;23.380;2023-03-14T02:37:19;94510.63;;;0.89;69.39
39301;BME280;25019;42.626;23.380;2023-03-14T02:39:46;94484.69;;;0.73;70.39
39301;BME280;25019;42.626;23.380;2023-03-14T02:42:15;94503.16;;;0.86;69.97
39301;BME280;25019;42.626;23.380;2023-03-14T02:45:00;94463.59;;;0.53;69.97
39301;BME280;25019;42.626;23.380;2023-03-14T02:47:29;94513.53;;;0.80;67.87
39301;BME280;25019;42.626;23.380;2023-03-14T02:50:07;94505.50;;;0.81;68.26
39301;BME280;25019;42.626;23.380;2023-03-14T02:52:33;94516.94;;;0.80;67.68
39301;BME280;25019;42.626;23.380;2023-03-14T02:54:59;94522.75;;;0.76;67.53
39301;BME280;25019;42.626;23.380;2023-03-14T02:57:25;94521.28;;;0.73;68.01
39301;BME280;25019;42.626;23.380;2023-03-14T02:59:50;94389.28;;;-0.11;68.44
39301;BME280;25019;42.626;23.380;2023-03-14T03:02:19;94518.88;;;0.71;68.47
39301;BME280;25019;42.626;23.380;2023-03-14T03:04:44;94528.13;;;0.74;69.30
39301;BME280;25019;42.626;23.380;2023-03-14T03:07:10;94519.78;;;0.64;69.84
39301;BME280;25019;42.626;23.380;2023-03-14T03:09:35;94527.44;;;0.65;70.49
39301;BME280;25019;42.626;23.380;2023-03-14T03:12:01;94492.69;;;0.50;70.89
39301;BME280;25019;42.626;23.380;2023-03-14T03:14:28;94521.41;;;0.65;70.56
39301;BME280;25019;42.626;23.380;2023-03-14T03:16:57;94436.63;;;0.16;71.29
39301;BME280;25019;42.626;23.380;2023-03-14T03:19:22;94517.25;;;0.70;70.82
39301;BME280;25019;42.626;23.380;2023-03-14T03:21:48;94516.25;;;0.71;71.15
39301;BME280;25019;42.626;23.380;2023-03-14T03:24:14;94444.88;;;0.19;71.73
39301;BME280;25019;42.626;23.380;2023-03-14T03:26:39;94517.44;;;0.69;71.60
39301;BME280;25019;42.626;23.380;2023-03-14T03:29:07;94519.22;;;0.68;71.93
39301;BME280;25019;42.626;23.380;2023-03-14T03:31:33;94525.47;;;0.67;72.86
39301;BME280;25019;42.626;23.380;2023-03-14T03:34:01;94518.44;;;0.68;72.93
39301;BME280;25019;42.626;23.380;2023-03-14T03:36:27;94516.56;;;0.62;72.16
39301;BME280;25019;42.626;23.380;2023-03-14T03:38:53;94517.19;;;0.64;73.08
39301;BME280;25019;42.626;23.380;2023-03-14T03:41:19;94506.47;;;0.58;73.57
39301;BME280;25019;42.626;23.380;2023-03-14T03:43:46;94513.94;;;0.62;73.58
39301;BME280;25019;42.626;23.380;2023-03-14T03:46:14;94516.47;;;0.55;74.01
39301;BME280;25019;42.626;23.380;2023-03-14T03:48:40;94514.03;;;0.53;74.12
39301;BME280;25019;42.626;23.380;2023-03-14T03:51:06;94521.44;;;0.50;74.12
39301;BME280;25019;42.626;23.380;2023-03-14T03:53:33;94530.44;;;0.47;73.68
39301;BME280;25019;42.626;23.380;2023-03-14T03:56:01;94525.75;;;0.42;73.65
39301;BME280;25019;42.626;23.380;2023-03-14T03:58:27;94518.84;;;0.35;74.01
39301;BME280;25019;42.626;23.380;2023-03-14T04:00:52;94504.31;;;0.17;74.23
39301;BME280;25019;42.626;23.380;2023-03-14T04:03:18;94416.19;;;-0.41;74.46
39301;BME280;25019;42.626;23.380;2023-03-14T04:05:44;94540.53;;;0.35;74.47
39301;BME280;25019;42.626;23.380;2023-03-14T04:08:09;94542.16;;;0.36;75.19
39301;BME280;25019;42.626;23.380;2023-03-14T04:10:36;94542.34;;;0.35;74.43
39301;BME280;25019;42.626;23.380;2023-03-14T04:13:15;94501.84;;;0.09;76.49
39301;BME280;25019;42.626;23.380;2023-03-14T04:15:46;94539.28;;;0.31;76.02
39301;BME280;25019;42.626;23.380;2023-03-14T04:18:22;94526.13;;;0.24;76.58
39301;BME280;25019;42.626;23.380;2023-03-14T04:20:56;94528.59;;;0.26;76.92
39301;BME280;25019;42.626;23.380;2023-03-14T04:23:27;94518.66;;;0.21;76.31
39301;BME280;25019;42.626;23.380;2023-03-14T04:25:54;94391.63;;;-0.62;77.11
39301;BME280;25019;42.626;23.380;2023-03-14T04:28:21;94399.09;;;-0.58;77.31
39301;BME280;25019;42.626;23.380;2023-03-14T04:30:47;94507.06;;;0.09;77.50
39301;BME280;25019;42.626;23.380;2023-03-14T04:33:18;94502.53;;;0.03;77.51
39301;BME280;25019;42.626;23.380;2023-03-14T04:35:56;94474.25;;;-0.09;78.21
39301;BME280;25019;42.626;23.380;2023-03-14T04:38:21;94426.13;;;-0.36;78.42
39301;BME280;25019;42.626;23.380;2023-03-14T04:40:48;94495.16;;;0.06;77.96
39301;BME280;25019;42.626;23.380;2023-03-14T04:43:15;94401.00;;;-0.52;78.26
39301;BME280;25019;42.626;23.380;2023-03-14T04:45:47;94487.22;;;-0.01;78.41
39301;BME280;25019;42.626;23.380;2023-03-14T04:48:13;94488.84;;;0.01;78.19
39301;BME280;25019;42.626;23.380;2023-03-14T04:50:40;94484.97;;;-0.19;79.01
39301;BME280;25019;42.626;23.380;2023-03-14T04:53:06;94492.63;;;-0.17;77.94
39301;BME280;25019;42.626;23.380;2023-03-14T04:55:32;94385.94;;;-0.80;77.67
39301;BME280;25019;42.626;23.380;2023-03-14T04:57:59;94477.41;;;-0.13;76.81
39301;BME280;25019;42.626;23.380;2023-03-14T05:00:25;94475.88;;;-0.08;77.44
39301;BME280;25019;42.626;23.380;2023-03-14T05:02:59;94472.13;;;-0.05;76.44
39301;BME280;25019;42.626;23.380;2023-03-14T05:05:33;94469.31;;;-0.04;77.39
39301;BME280;25019;42.626;23.380;2023-03-14T05:08:16;94470.78;;;-0.01;76.52
39301;BME280;25019;42.626;23.380;2023-03-14T05:11:01;94481.09;;;0.07;77.26
39301;BME280;25019;42.626;23.380;2023-03-14T05:14:00;94482.38;;;0.11;76.71
39301;BME280;25019;42.626;23.380;2023-03-14T05:16:44;94483.28;;;0.19;76.30
39301;BME280;25019;42.626;23.380;2023-03-14T05:19:21;94476.13;;;0.27;76.21
39301;BME280;25019;42.626;23.380;2023-03-14T05:22:06;94473.06;;;0.39;76.34
39301;BME280;25019;42.626;23.380;2023-03-14T05:24:50;94481.59;;;0.48;75.71
39301;BME280;25019;42.626;23.380;2023-03-14T05:27:45;94483.03;;;0.50;74.50
39301;BME280;25019;42.626;23.380;2023-03-14T05:30:11;94480.38;;;0.65;74.22
39301;BME280;25019;42.626;23.380;2023-03-14T05:32:47;94418.72;;;0.34;74.02
39301;BME280;25019;42.626;23.380;2023-03-14T05:35:33;94461.69;;;0.83;74.71
39301;BME280;25019;42.626;23.380;2023-03-14T05:38:34;94470.97;;;1.08;75.05
39301;BME280;25019;42.626;23.380;2023-03-14T05:41:20;94383.56;;;0.73;75.12
39301;BME280;25019;42.626;23.380;2023-03-14T05:44:03;94471.63;;;1.38;75.20
39301;BME280;25019;42.626;23.380;2023-03-14T05:46:37;94468.06;;;1.46;75.87
39301;BME280;25019;42.626;23.380;2023-03-14T05:49:41;94466.53;;;1.58;75.70
39301;BME280;25019;42.626;23.380;2023-03-14T05:52:17;94465.81;;;1.71;75.91
39301;BME280;25019;42.626;23.380;2023-03-14T05:55:18;94468.69;;;1.76;75.83
39301;BME280;25019;42.626;23.380;2023-03-14T05:58:23;94478.91;;;1.71;75.63
39301;BME280;25019;42.626;23.380;2023-03-14T06:01:09;94466.06;;;1.76;75.16
39301;BME280;25019;42.626;23.380;2023-03-14T06:03:58;94471.13;;;1.85;75.35
39301;BME280;25019;42.626;23.380;2023-03-14T06:06:23;94464.56;;;1.95;74.67
39301;BME280;25019;42.626;23.380;2023-03-14T06:08:49;94417.69;;;1.72;74.89
39301;BME280;25019;42.626;23.380;2023-03-14T06:11:15;94461.53;;;1.99;74.45
39301;BME280;25019;42.626;23.380;2023-03-14T06:13:41;94445.28;;;2.03;73.63
39301;BME280;25019;42.626;23.380;2023-03-14T06:16:08;94470.78;;;2.30;73.31
39301;BME280;25019;42.626;23.380;2023-03-14T06:18:33;94392.44;;;2.00;72.30
39301;BME280;25019;42.626;23.380;2023-03-14T06:20:59;94445.03;;;2.47;71.40
39301;BME280;25019;42.626;23.380;2023-03-14T06:23:26;94458.59;;;2.57;71.54
39301;BME280;25019;42.626;23.380;2023-03-14T06:25:52;94463.25;;;2.68;70.92
39301;BME280;25019;42.626;23.380;2023-03-14T06:28:19;94462.53;;;2.88;70.17
39301;BME280;25019;42.626;23.380;2023-03-14T06:30:45;94446.16;;;2.86;71.04
39301;BME280;25019;42.626;23.380;2023-03-14T06:33:13;94468.56;;;2.89;70.61
39301;BME280;25019;42.626;23.380;2023-03-14T06:35:40;94468.75;;;2.80;70.18
39301;BME280;25019;42.626;23.380;2023-03-14T06:38:06;94470.41;;;2.88;70.66
39301;BME280;25019;42.626;23.380;2023-03-14T06:40:32;94474.84;;;3.01;70.08
39301;BME280;25019;42.626;23.380;2023-03-14T06:43:04;94473.81;;;2.95;68.69
39301;BME280;25019;42.626;23.380;2023-03-14T06:45:31;94443.94;;;2.90;68.31
39301;BME280;25019;42.626;23.380;2023-03-14T06:47:58;94456.88;;;3.11;68.06
39301;BME280;25019;42.626;23.380;2023-03-14T06:50:33;94437.13;;;3.22;67.33
39301;BME280;25019;42.626;23.380;2023-03-14T06:52:59;94434.91;;;3.26;66.21
39301;BME280;25019;42.626;23.380;2023-03-14T06:55:25;94447.81;;;3.54;66.30
39301;BME280;25019;42.626;23.380;2023-03-14T06:57:52;94433.09;;;3.47;63.72
39301;BME280;25019;42.626;23.380;2023-03-14T07:00:18;94436.53;;;3.47;63.88
39301;BME280;25019;42.626;23.380;2023-03-14T07:02:44;94417.34;;;3.26;62.69
39301;BME280;25019;42.626;23.380;2023-03-14T07:05:42;94442.56;;;3.54;62.40
39301;BME280;25019;42.626;23.380;2023-03-14T07:08:08;94428.63;;;3.60;62.93
39301;BME280;25019;42.626;23.380;2023-03-14T07:10:34;94421.56;;;3.68;62.33
39301;BME280;25019;42.626;23.380;2023-03-14T07:13:00;94402.97;;;3.63;63.28
39301;BME280;25019;42.626;23.380;2023-03-14T07:15:29;94416.28;;;3.74;62.92
39301;BME280;25019;42.626;23.380;2023-03-14T07:17:58;94414.88;;;3.65;63.15
39301;BME280;25019;42.626;23.380;2023-03-14T07:20:26;94411.06;;;3.61;63.37
39301;BME280;25019;42.626;23.380;2023-03-14T07:22:52;94419.13;;;3.66;63.12
39301;BME280;25019;42.626;23.380;2023-03-14T07:25:26;94304.50;;;2.86;62.83
39301;BME280;25019;42.626;23.380;2023-03-14T07:27:52;94414.91;;;3.58;62.75
39301;BME280;25019;42.626;23.380;2023-03-14T07:30:18;94412.06;;;3.47;61.80
39301;BME280;25019;42.626;23.380;2023-03-14T07:32:44;94404.41;;;3.52;62.69
39301;BME280;25019;42.626;23.380;2023-03-14T07:35:11;94361.22;;;3.14;62.37
39301;BME280;25019;42.626;23.380;2023-03-14T07:37:39;94413.91;;;3.53;62.48
39301;BME280;25019;42.626;23.380;2023-03-14T07:40:05;94403.38;;;3.59;63.19
39301;BME280;25019;42.626;23.380;2023-03-14T07:42:32;94412.88;;;3.60;63.44
39301;BME280;25019;42.626;23.380;2023-03-14T07:45:10;94407.44;;;3.62;62.42
39301;BME280;25019;42.626;23.380;2023-03-14T07:47:36;94263.94;;;2.95;62.17
39301;BME280;25019;42.626;23.380;2023-03-14T07:50:03;94269.34;;;3.07;61.68
39301;BME280;25019;42.626;23.380;2023-03-14T07:52:30;94378.88;;;3.86;61.43
39301;BME280;25019;42.626;23.380;2023-03-14T07:54:55;94391.56;;;4.02;60.99
39301;BME280;25019;42.626;23.380;2023-03-14T07:57:21;94395.38;;;4.13;60.76
39301;BME280;25019;42.626;23.380;2023-03-14T07:59:47;94324.91;;;3.83;59.93
39301;BME280;25019;42.626;23.380;2023-03-14T08:02:13;94325.72;;;3.90;59.94
39301;BME280;25019;42.626;23.380;2023-03-14T08:04:39;94391.59;;;4.41;59.91
39301;BME280;25019;42.626;23.380;2023-03-14T08:07:05;94398.25;;;4.50;59.66
39301;BME280;25019;42.626;23.380;2023-03-14T08:09:31;94397.41;;;4.57;59.36
39301;BME280;25019;42.626;23.380;2023-03-14T08:11:57;94345.16;;;4.28;59.58
39301;BME280;25019;42.626;23.380;2023-03-14T08:14:23;94389.44;;;4.70;59.43
39301;BME280;25019;42.626;23.380;2023-03-14T08:16:52;94394.09;;;4.68;59.83
39301;BME280;25019;42.626;23.380;2023-03-14T08:19:17;94331.81;;;4.30;58.49
39301;BME280;25019;42.626;23.380;2023-03-14T08:21:43;94385.28;;;4.56;57.96
39301;BME280;25019;42.626;23.380;2023-03-14T08:24:08;94393.09;;;4.69;58.25
39301;BME280;25019;42.626;23.380;2023-03-14T08:26:34;94382.91;;;4.79;57.96
39301;BME280;25019;42.626;23.380;2023-03-14T08:29:00;94387.16;;;5.06;56.93
39301;BME280;25019;42.626;23.380;2023-03-14T08:31:26;94385.25;;;5.20;57.04
39301;BME280;25019;42.626;23.380;2023-03-14T08:33:51;94389.41;;;5.34;57.12
39301;BME280;25019;42.626;23.380;2023-03-14T08:36:19;94324.00;;;5.06;57.66
39301;BME280;25019;42.626;23.380;2023-03-14T08:38:45;94374.81;;;5.57;57.69
39301;BME280;25019;42.626;23.380;2023-03-14T08:41:11;94303.94;;;5.30;56.83
39301;BME280;25019;42.626;23.380;2023-03-14T08:43:37;94373.44;;;5.73;55.66
39301;BME280;25019;42.626;23.380;2023-03-14T08:46:03;94363.19;;;5.65;55.79
39301;BME280;25019;42.626;23.380;2023-03-14T08:48:29;94359.56;;;5.84;55.65
39301;BME280;25019;42.626;23.380;2023-03-14T08:51:09;94353.88;;;5.99;55.16
39301;BME280;25019;42.626;23.380;2023-03-14T08:53:36;94276.22;;;5.65;53.94
39301;BME280;25019;42.626;23.380;2023-03-14T08:56:02;94344.88;;;6.26;53.81
39301;BME280;25019;42.626;23.380;2023-03-14T08:58:29;94340.69;;;6.37;53.13
39301;BME280;25019;42.626;23.380;2023-03-14T09:00:55;94338.09;;;6.49;53.58
39301;BME280;25019;42.626;23.380;2023-03-14T09:03:20;94342.75;;;6.65;52.99
39301;BME280;25019;42.626;23.380;2023-03-14T09:05:49;94326.97;;;6.77;52.88
39301;BME280;25019;42.626;23.380;2023-03-14T09:08:15;94259.50;;;6.39;52.62
39301;BME280;25019;42.626;23.380;2023-03-14T09:10:40;94317.44;;;6.76;51.45
39301;BME280;25019;42.626;23.380;2023-03-14T09:13:06;94327.72;;;7.08;51.22
39301;BME280;25019;42.626;23.380;2023-03-14T09:15:32;94314.97;;;7.29;51.52
39301;BME280;25019;42.626;23.380;2023-03-14T09:17:58;94302.34;;;7.43;50.87
39301;BME280;25019;42.626;23.380;2023-03-14T09:20:23;94308.06;;;7.52;50.74
39301;BME280;25019;42.626;23.380;2023-03-14T09:22:50;94304.03;;;7.73;49.57
39301;BME280;25019;42.626;23.380;2023-03-14T09:25:15;94295.19;;;7.79;48.82
39301;BME280;25019;42.626;23.380;2023-03-14T09:27:41;94284.78;;;7.89;48.28
39301;BME280;25019;42.626;23.380;2023-03-14T09:30:07;94277.47;;;7.79;48.31
39301;BME280;25019;42.626;23.380;2023-03-14T09:32:33;94273.38;;;8.01;47.71
39301;BME280;25019;42.626;23.380;2023-03-14T09:34:58;94266.56;;;8.17;47.97
39301;BME280;25019;42.626;23.380;2023-03-14T09:37:24;94265.50;;;8.18;48.21
39301;BME280;25019;42.626;23.380;2023-03-14T09:39:50;94266.75;;;8.15;46.79
39301;BME280;25019;42.626;23.380;2023-03-14T09:42:18;94255.56;;;8.25;47.08
39301;BME280;25019;42.626;23.380;2023-03-14T09:44:59;94257.00;;;8.16;46.63
39301;BME280;25019;42.626;23.380;2023-03-14T09:47:27;94243.09;;;8.08;46.94
39301;BME280;25019;42.626;23.380;2023-03-14T09:49:53;94241.75;;;8.35;46.24
39301;BME280;25019;42.626;23.380;2023-03-14T09:52:23;94239.22;;;8.57;45.42
39301;BME280;25019;42.626;23.380;2023-03-14T09:54:52;94237.59;;;8.56;47.11
39301;BME280;25019;42.626;23.380;2023-03-14T09:57:21;94232.59;;;8.72;46.95
39301;BME280;25019;42.626;23.380;2023-03-14T09:59:49;94233.63;;;8.71;47.17
39301;BME280;25019;42.626;23.380;2023-03-14T10:04:48;94203.91;;;9.03;46.51
39301;BME280;25019;42.626;23.380;2023-03-14T10:07:16;94213.94;;;9.18;46.03
39301;BME280;25019;42.626;23.380;2023-03-14T10:09:49;94209.25;;;9.25;47.44
39301;BME280;25019;42.626;23.380;2023-03-14T10:12:16;94201.50;;;9.40;47.29
39301;BME280;25019;42.626;23.380;2023-03-14T10:14:48;94204.28;;;9.51;46.66
39301;BME280;25019;42.626;23.380;2023-03-14T10:17:15;94159.78;;;8.91;46.95
39301;BME280;25019;42.626;23.380;2023-03-14T10:19:55;94187.88;;;9.32;47.03
39301;BME280;25019;42.626;23.380;2023-03-14T10:22:24;94180.81;;;9.59;46.20
39301;BME280;25019;42.626;23.380;2023-03-14T10:25:03;94182.38;;;9.83;45.79
39301;BME280;25019;42.626;23.380;2023-03-14T10:27:32;94174.13;;;9.79;45.86
39301;BME280;25019;42.626;23.380;2023-03-14T10:30:04;94157.78;;;9.87;45.78
39301;BME280;25019;42.626;23.380;2023-03-14T10:32:38;94091.00;;;9.68;45.42
39301;BME280;25019;42.626;23.380;2023-03-14T10:40:19;94137.19;;;10.60;45.63
39301;BME280;25019;42.626;23.380;2023-03-14T10:42:45;94129.19;;;10.55;45.06
39301;BME280;25019;42.626;23.380;2023-03-14T10:45:39;94131.75;;;10.77;46.10
39301;BME280;25019;42.626;23.380;2023-03-14T10:48:18;94115.97;;;11.03;45.27
39301;BME280;25019;42.626;23.380;2023-03-14T10:51:03;94107.81;;;11.20;44.35
39301;BME280;25019;42.626;23.380;2023-03-14T10:56:21;94093.25;;;11.33;42.79
39301;BME280;25019;42.626;23.380;2023-03-14T10:58:49;94084.69;;;11.26;44.18
39301;BME280;25019;42.626;23.380;2023-03-14T11:07:02;94072.56;;;11.56;42.53
39301;BME280;25019;42.626;23.380;2023-03-14T11:09:41;94069.81;;;11.24;42.11
39301;BME280;25019;42.626;23.380;2023-03-14T11:12:36;94064.50;;;11.24;42.29
39301;BME280;25019;42.626;23.380;2023-03-14T11:15:11;94041.94;;;11.43;42.10
39301;BME280;25019;42.626;23.380;2023-03-14T11:20:55;94036.66;;;11.53;41.73
39301;BME280;25019;42.626;23.380;2023-03-14T11:26:16;94024.47;;;11.88;40.95
39301;BME280;25019;42.626;23.380;2023-03-14T11:28:48;94009.31;;;11.99;41.17
39301;BME280;25019;42.626;23.380;2023-03-14T11:31:31;94000.00;;;12.17;40.83
39301;BME280;25019;42.626;23.380;2023-03-14T11:36:59;93978.16;;;12.31;40.73
39301;BME280;25019;42.626;23.380;2023-03-14T11:39:26;93970.72;;;12.33;40.65
39301;BME280;25019;42.626;23.380;2023-03-14T11:41:57;93966.94;;;12.44;39.57
39301;BME280;25019;42.626;23.380;2023-03-14T11:44:30;93912.97;;;12.23;39.36
39301;BME280;25019;42.626;23.380;2023-03-14T11:50:14;93956.25;;;12.65;38.69
39301;BME280;25019;42.626;23.380;2023-03-14T11:52:50;93961.88;;;12.48;38.40
39301;BME280;25019;42.626;23.380;2023-03-14T11:55:23;93950.38;;;12.63;37.75
39301;BME280;25019;42.626;23.380;2023-03-14T11:57:55;93950.88;;;12.75;37.78
39301;BME280;25019;42.626;23.380;2023-03-14T12:00:23;93942.00;;;12.90;38.28
39301;BME280;25019;42.626;23.380;2023-03-14T12:03:17;93933.13;;;13.05;37.99
39301;BME280;25019;42.626;23.380;2023-03-14T12:05:58;93933.59;;;13.23;38.05
39301;BME280;25019;42.626;23.380;2023-03-14T12:08:55;93923.25;;;13.11;37.24
39301;BME280;25019;42.626;23.380;2023-03-14T12:14:02;93914.47;;;13.05;36.85
39301;BME280;25019;42.626;23.380;2023-03-14T12:16:38;93905.34;;;13.22;36.84
39301;BME280;25019;42.626;23.380;2023-03-14T12:24:23;93890.53;;;13.45;36.19
39301;BME280;25019;42.626;23.380;2023-03-14T12:26:54;93880.53;;;13.61;36.38
39301;BME280;25019;42.626;23.380;2023-03-14T12:29:20;93880.44;;;13.71;36.13
39301;BME280;25019;42.626;23.380;2023-03-14T12:32:24;93871.00;;;13.84;36.01
39301;BME280;25019;42.626;23.380;2023-03-14T12:34:50;93866.16;;;13.86;35.92
39301;BME280;25019;42.626;23.380;2023-03-14T12:40:17;93867.94;;;13.96;34.86
39301;BME280;25019;42.626;23.380;2023-03-14T12:42:57;93854.69;;;13.86;35.49
39301;BME280;25019;42.626;23.380;2023-03-14T12:45:31;93841.91;;;13.83;34.68
39301;BME280;25019;42.626;23.380;2023-03-14T12:50:56;93841.47;;;14.00;34.32
39301;BME280;25019;42.626;23.380;2023-03-14T12:58:50;93843.13;;;14.20;34.71
39301;BME280;25019;42.626;23.380;2023-03-14T13:01:20;93837.63;;;14.35;34.62
39301;BME280;25019;42.626;23.380;2023-03-14T13:03:57;93811.91;;;14.39;33.81
39301;BME280;25019;42.626;23.380;2023-03-14T13:06:50;93829.84;;;14.58;33.32
39301;BME280;25019;42.626;23.380;2023-03-14T13:12:03;93806.38;;;14.55;32.99
39301;BME280;25019;42.626;23.380;2023-03-14T13:14:34;93742.00;;;14.13;33.37
39301;BME280;25019;42.626;23.380;2023-03-14T13:17:01;93797.47;;;14.41;32.61
39301;BME280;25019;42.626;23.380;2023-03-14T13:19:29;93803.69;;;14.36;32.82
39301;BME280;25019;42.626;23.380;2023-03-14T13:22:17;93795.53;;;14.46;32.95
39301;BME280;25019;42.626;23.380;2023-03-14T13:24:45;93798.72;;;14.67;32.82
39301;BME280;25019;42.626;23.380;2023-03-14T13:27:17;93788.16;;;14.38;32.33
39301;BME280;25019;42.626;23.380;2023-03-14T13:29:44;93781.19;;;14.61;32.22
39301;BME280;25019;42.626;23.380;2023-03-14T13:32:42;93762.59;;;14.75;32.61
39301;BME280;25019;42.626;23.380;2023-03-14T13:35:27;93769.59;;;14.71;32.64
39301;BME280;25019;42.626;23.380;2023-03-14T13:38:02;93752.53;;;14.86;32.22
39301;BME280;25019;42.626;23.380;2023-03-14T13:40:34;93699.63;;;14.26;32.22
39301;BME280;25019;42.626;23.380;2023-03-14T13:43:10;93741.19;;;14.56;32.30
39301;BME280;25019;42.626;23.380;2023-03-14T13:45:51;93736.47;;;14.67;32.60
39301;BME280;25019;42.626;23.380;2023-03-14T13:48:18;93690.41;;;14.56;32.72
39301;BME280;25019;42.626;23.380;2023-03-14T13:51:05;93725.03;;;15.00;32.12
39301;BME280;25019;42.626;23.380;2023-03-14T13:53:42;93723.75;;;14.97;32.55
39301;BME280;25019;42.626;23.380;2023-03-14T13:56:09;93719.00;;;14.94;32.17
39301;BME280;25019;42.626;23.380;2023-03-14T13:58:37;93703.88;;;15.03;32.13
39301;BME280;25019;42.626;23.380;2023-03-14T14:01:06;93703.28;;;15.20;31.83
39301;BME280;25019;42.626;23.380;2023-03-14T14:03:39;93700.28;;;15.41;31.89
39301;BME280;25019;42.626;23.380;2023-03-14T14:06:10;93652.47;;;15.06;31.80
39301;BME280;25019;42.626;23.380;2023-03-14T14:08:41;93683.72;;;15.39;31.99